sensor_id;sensor_type;location;lat;lon;timestamp;P1;durP1;ratioP1;P2;durP2;ratioP2
4246;SDS011;2137;52.564;10.062;2022-08-21T00:00:04;0.70;;;0.47;;
4246;SDS011;2137;52.564;10.062;2022-08-21T00:00:27;0.70;;;0.40;;
4246;SDS011;2137;52.564;10.062;2022-08-21T00:00:44;0.70;;;0.40;;
4246;SDS011;2137;52.564;10.062;2022-08-21T00:01:02;0.40;;;0.30;;
4246;SDS011;2137;52.564;10.062;2022-08-21T00:01:23;1.27;;;0.40;;
4246;SDS011;2137;52.564;10.062;2022-08-21T00:01:40;1.77;;;0.60;;
4246;SDS011;2137;52.564;10.062;2022-08-21T00:01:57;1.68;;;0.60;;
4246;SDS011;2137;52.564;10.062;2022-08-21T00:02:15;2.17;;;0.50;;
4246;SDS011;2137;52.564;10.062;2022-08-21T00:02:32;2.00;;;0.50;;
4246;SDS011;2137;52.564;10.062;2022-08-21T00:02:50;1.08;;;0.55;;
4246;SDS011;2137;52.564;10.062;2022-08-21T00:05:55;2.83;;;0.50;;
4246;SDS011;2137;52.564;10.062;2022-08-21T00:06:13;0.85;;;0.32;;
4246;SDS011;2137;52.564;10.062;2022-08-21T00:06:29;0.90;;;0.30;;
4246;SDS011;2137;52.564;10.062;2022-08-21T00:06:46;1.40;;;0.30;;
4246;SDS011;2137;52.564;10.062;2022-08-21T00:07:03;1.80;;;0.40;;
4246;SDS011;2137;52.564;10.062;2022-08-21T00:07:19;2.03;;;0.40;;
4246;SDS011;2137;52.564;10.062;2022-08-21T00:07:40;1.65;;;0.30;;
4246;SDS011;2137;52.564;10.062;2022-08-21T00:07:57;1.73;;;0.30;;
4246;SDS011;2137;52.564;10.062;2022-08-21T00:08:14;1.08;;;0.30;;
4246;SDS011;2137;52.564;10.062;2022-08-21T00:08:31;0.85;;;0.32;;
4246;SDS011;2137;52.564;10.062;2022-08-21T00:08:47;1.08;;;0.47;;
4246;SDS011;2137;52.564;10.062;2022-08-21T00:09:07;0.82;;;0.30;;
4246;SDS011;2137;52.564;10.062;2022-08-21T00:09:24;0.35;;;0.20;;
4246;SDS011;2137;52.564;10.062;2022-08-21T00:09:40;1.13;;;0.22;;
4246;SDS011;2137;52.564;10.062;2022-08-21T00:09:57;2.05;;;0.38;;
4246;SDS011;2137;52.564;10.062;2022-08-21T00:10:59;0.52;;;0.32;;
4246;SDS011;2137;52.564;10.062;2022-08-21T00:11:16;1.90;;;0.40;;
4246;SDS011;2137;52.564;10.062;2022-08-21T00:11:33;1.50;;;0.28;;
4246;SDS011;2137;52.564;10.062;2022-08-21T00:11:49;1.48;;;0.50;;
4246;SDS011;2137;52.564;10.062;2022-08-21T00:12:06;2.67;;;0.73;;
4246;SDS011;2137;52.564;10.062;2022-08-21T00:12:23;2.04;;;0.50;;
4246;SDS011;2137;52.564;10.062;2022-08-21T00:12:41;0.90;;;0.40;;
4246;SDS011;2137;52.564;10.062;2022-08-21T00:12:57;1.48;;;0.40;;
4246;SDS011;2137;52.564;10.062;2022-08-21T00:13:15;1.15;;;0.30;;
4246;SDS011;2137;52.564;10.062;2022-08-21T00:13:34;0.82;;;0.50;;
4246;SDS011;2137;52.564;10.062;2022-08-21T00:13:51;1.25;;;0.60;;
4246;SDS011;2137;52.564;10.062;2022-08-21T00:14:09;0.95;;;0.50;;
4246;SDS011;2137;52.564;10.062;2022-08-21T00:14:27;0.75;;;0.40;;
4246;SDS011;2137;52.564;10.062;2022-08-21T00:14:47;1.38;;;0.68;;
4246;SDS011;2137;52.564;10.062;2022-08-21T00:15:05;0.60;;;0.30;;
4246;SDS011;2137;52.564;10.062;2022-08-21T00:15:26;0.63;;;0.35;;
4246;SDS011;2137;52.564;10.062;2022-08-21T00:15:43;1.13;;;0.32;;
4246;SDS011;2137;52.564;10.062;2022-08-21T00:16:02;1.52;;;0.30;;
4246;SDS011;2137;52.564;10.062;2022-08-21T00:16:19;1.42;;;0.40;;
4246;SDS011;2137;52.564;10.062;2022-08-21T00:16:36;1.10;;;0.40;;
4246;SDS011;2137;52.564;10.062;2022-08-21T00:16:53;0.70;;;0.40;;
4246;SDS011;2137;52.564;10.062;2022-08-21T00:17:15;0.80;;;0.40;;
4246;SDS011;2137;52.564;10.062;2022-08-21T00:17:33;0.40;;;0.30;;
4246;SDS011;2137;52.564;10.062;2022-08-21T00:17:50;0.57;;;0.35;;
4246;SDS011;2137;52.564;10.062;2022-08-21T00:18:07;1.10;;;0.40;;
4246;SDS011;2137;52.564;10.062;2022-08-21T00:18:24;0.77;;;0.28;;
4246;SDS011;2137;52.564;10.062;2022-08-21T00:18:41;0.75;;;0.20;;
4246;SDS011;2137;52.564;10.062;2022-08-21T00:18:58;1.05;;;0.40;;
4246;SDS011;2137;52.564;10.062;2022-08-21T00:19:15;1.10;;;0.60;;
4246;SDS011;2137;52.564;10.062;2022-08-21T00:19:32;0.75;;;0.50;;
4246;SDS011;2137;52.564;10.062;2022-08-21T00:19:49;1.27;;;0.40;;
4246;SDS011;2137;52.564;10.062;2022-08-21T00:20:07;1.20;;;0.30;;
4246;SDS011;2137;52.564;10.062;2022-08-21T00:20:25;1.15;;;0.38;;
4246;SDS011;2137;52.564;10.062;2022-08-21T00:20:42;1.35;;;0.50;;
4246;SDS011;2137;52.564;10.062;2022-08-21T00:20:59;0.80;;;0.45;;
4246;SDS011;2137;52.564;10.062;2022-08-21T00:21:16;0.43;;;0.30;;
4246;SDS011;2137;52.564;10.062;2022-08-21T00:21:34;0.88;;;0.30;;
4246;SDS011;2137;52.564;10.062;2022-08-21T00:21:50;2.55;;;0.47;;
4246;SDS011;2137;52.564;10.062;2022-08-21T00:22:08;2.95;;;0.60;;
4246;SDS011;2137;52.564;10.062;2022-08-21T00:22:24;1.40;;;0.32;;
4246;SDS011;2137;52.564;10.062;2022-08-21T00:22:41;0.68;;;0.20;;
4246;SDS011;2137;52.564;10.062;2022-08-21T00:22:59;0.63;;;0.30;;
4246;SDS011;2137;52.564;10.062;2022-08-21T00:23:16;2.10;;;0.40;;
4246;SDS011;2137;52.564;10.062;2022-08-21T00:23:33;2.28;;;0.35;;
4246;SDS011;2137;52.564;10.062;2022-08-21T00:23:49;1.00;;;0.30;;
4246;SDS011;2137;52.564;10.062;2022-08-21T00:24:06;0.43;;;0.20;;
4246;SDS011;2137;52.564;10.062;2022-08-21T00:24:25;0.63;;;0.35;;
4246;SDS011;2137;52.564;10.062;2022-08-21T00:24:41;1.10;;;0.40;;
4246;SDS011;2137;52.564;10.062;2022-08-21T00:24:58;0.77;;;0.40;;
4246;SDS011;2137;52.564;10.062;2022-08-21T00:25:15;1.70;;;0.32;;
4246;SDS011;2137;52.564;10.062;2022-08-21T00:25:36;1.63;;;0.40;;
4246;SDS011;2137;52.564;10.062;2022-08-21T00:25:53;1.75;;;0.50;;
4246;SDS011;2137;52.564;10.062;2022-08-21T00:26:10;2.80;;;0.60;;
4246;SDS011;2137;52.564;10.062;2022-08-21T00:26:27;2.28;;;0.60;;
4246;SDS011;2137;52.564;10.062;2022-08-21T00:26:44;1.15;;;0.50;;
4246;SDS011;2137;52.564;10.062;2022-08-21T00:30:36;1.20;;;0.40;;
4246;SDS011;2137;52.564;10.062;2022-08-21T00:30:54;0.40;;;0.30;;
4246;SDS011;2137;52.564;10.062;2022-08-21T00:39:54;0.88;;;0.40;;
4246;SDS011;2137;52.564;10.062;2022-08-21T00:40:13;1.20;;;0.40;;
4246;SDS011;2137;52.564;10.062;2022-08-21T00:40:32;1.45;;;0.40;;
4246;SDS011;2137;52.564;10.062;2022-08-21T00:40:51;1.20;;;0.57;;
4246;SDS011;2137;52.564;10.062;2022-08-21T00:41:08;0.90;;;0.47;;
4246;SDS011;2137;52.564;10.062;2022-08-21T00:45:07;0.50;;;0.40;;
4246;SDS011;2137;52.564;10.062;2022-08-21T00:45:51;2.03;;;0.30;;
4246;SDS011;2137;52.564;10.062;2022-08-21T00:46:09;1.08;;;0.30;;
4246;SDS011;2137;52.564;10.062;2022-08-21T00:46:26;0.73;;;0.40;;
4246;SDS011;2137;52.564;10.062;2022-08-21T00:49:58;0.88;;;0.38;;
4246;SDS011;2137;52.564;10.062;2022-08-21T00:50:16;1.08;;;0.40;;
4246;SDS011;2137;52.564;10.062;2022-08-21T00:50:38;1.00;;;0.60;;
4246;SDS011;2137;52.564;10.062;2022-08-21T00:51:05;1.23;;;0.47;;
4246;SDS011;2137;52.564;10.062;2022-08-21T00:51:23;1.20;;;0.57;;
4246;SDS011;2137;52.564;10.062;2022-08-21T00:51:43;3.42;;;0.60;;
4246;SDS011;2137;52.564;10.062;2022-08-21T00:53:28;0.82;;;0.52;;
4246;SDS011;2137;52.564;10.062;2022-08-21T00:53:46;2.08;;;0.93;;
4246;SDS011;2137;52.564;10.062;2022-08-21T00:54:24;2.95;;;0.85;;
4246;SDS011;2137;52.564;10.062;2022-08-21T00:54:42;1.23;;;0.65;;
4246;SDS011;2137;52.564;10.062;2022-08-21T00:56:14;1.00;;;0.68;;
4246;SDS011;2137;52.564;10.062;2022-08-21T00:56:38;1.25;;;0.68;;
4246;SDS011;2137;52.564;10.062;2022-08-21T00:56:59;1.42;;;0.50;;
4246;SDS011;2137;52.564;10.062;2022-08-21T00:57:26;2.17;;;0.60;;
4246;SDS011;2137;52.564;10.062;2022-08-21T00:58:36;1.73;;;0.55;;
4246;SDS011;2137;52.564;10.062;2022-08-21T00:58:56;1.50;;;0.73;;
4246;SDS011;2137;52.564;10.062;2022-08-21T00:59:14;1.48;;;0.70;;
4246;SDS011;2137;52.564;10.062;2022-08-21T00:59:32;1.33;;;0.60;;
4246;SDS011;2137;52.564;10.062;2022-08-21T00:59:49;1.10;;;0.43;;
4246;SDS011;2137;52.564;10.062;2022-08-21T01:02:12;1.58;;;0.47;;
4246;SDS011;2137;52.564;10.062;2022-08-21T01:02:30;1.42;;;0.40;;
4246;SDS011;2137;52.564;10.062;2022-08-21T01:02:47;1.27;;;0.65;;
4246;SDS011;2137;52.564;10.062;2022-08-21T01:03:05;2.03;;;0.70;;
4246;SDS011;2137;52.564;10.062;2022-08-21T01:03:24;2.70;;;0.68;;
4246;SDS011;2137;52.564;10.062;2022-08-21T01:03:41;2.75;;;0.75;;
4246;SDS011;2137;52.564;10.062;2022-08-21T01:04:00;1.25;;;0.73;;
4246;SDS011;2137;52.564;10.062;2022-08-21T01:04:17;1.23;;;0.63;;
4246;SDS011;2137;52.564;10.062;2022-08-21T01:04:34;2.20;;;0.50;;
4246;SDS011;2137;52.564;10.062;2022-08-21T01:06:39;1.75;;;0.43;;
4246;SDS011;2137;52.564;10.062;2022-08-21T01:06:57;1.38;;;0.47;;
4246;SDS011;2137;52.564;10.062;2022-08-21T01:07:14;0.60;;;0.30;;
4246;SDS011;2137;52.564;10.062;2022-08-21T01:07:30;0.57;;;0.30;;
4246;SDS011;2137;52.564;10.062;2022-08-21T01:07:48;0.80;;;0.40;;
4246;SDS011;2137;52.564;10.062;2022-08-21T01:08:04;1.15;;;0.55;;
4246;SDS011;2137;52.564;10.062;2022-08-21T01:08:23;1.08;;;0.50;;
4246;SDS011;2137;52.564;10.062;2022-08-21T01:08:40;1.40;;;0.40;;
4246;SDS011;2137;52.564;10.062;2022-08-21T01:09:45;0.52;;;0.30;;
4246;SDS011;2137;52.564;10.062;2022-08-21T01:10:02;0.70;;;0.40;;
4246;SDS011;2137;52.564;10.062;2022-08-21T01:10:19;0.40;;;0.40;;
4246;SDS011;2137;52.564;10.062;2022-08-21T01:10:39;0.60;;;0.28;;
4246;SDS011;2137;52.564;10.062;2022-08-21T01:10:57;1.40;;;0.40;;
4246;SDS011;2137;52.564;10.062;2022-08-21T01:11:18;1.50;;;0.55;;
4246;SDS011;2137;52.564;10.062;2022-08-21T01:11:35;1.02;;;0.50;;
4246;SDS011;2137;52.564;10.062;2022-08-21T01:11:52;1.50;;;0.50;;
4246;SDS011;2137;52.564;10.062;2022-08-21T01:12:09;1.40;;;0.40;;
4246;SDS011;2137;52.564;10.062;2022-08-21T01:12:40;0.80;;;0.20;;
4246;SDS011;2137;52.564;10.062;2022-08-21T01:12:58;1.25;;;0.50;;
4246;SDS011;2137;52.564;10.062;2022-08-21T01:13:15;1.02;;;0.43;;
4246;SDS011;2137;52.564;10.062;2022-08-21T01:13:34;0.50;;;0.40;;
4246;SDS011;2137;52.564;10.062;2022-08-21T01:15:28;0.70;;;0.50;;
4246;SDS011;2137;52.564;10.062;2022-08-21T01:15:55;0.85;;;0.57;;
4246;SDS011;2137;52.564;10.062;2022-08-21T01:16:17;0.70;;;0.30;;
4246;SDS011;2137;52.564;10.062;2022-08-21T01:16:35;0.60;;;0.22;;
4246;SDS011;2137;52.564;10.062;2022-08-21T01:16:51;1.30;;;0.70;;
4246;SDS011;2137;52.564;10.062;2022-08-21T01:17:08;1.35;;;0.50;;
4246;SDS011;2137;52.564;10.062;2022-08-21T01:17:28;0.60;;;0.30;;
4246;SDS011;2137;52.564;10.062;2022-08-21T01:17:47;0.77;;;0.38;;
4246;SDS011;2137;52.564;10.062;2022-08-21T01:18:04;0.65;;;0.32;;
4246;SDS011;2137;52.564;10.062;2022-08-21T01:18:21;0.55;;;0.40;;
4246;SDS011;2137;52.564;10.062;2022-08-21T01:19:28;1.00;;;0.30;;
4246;SDS011;2137;52.564;10.062;2022-08-21T01:21:15;1.20;;;0.20;;
4246;SDS011;2137;52.564;10.062;2022-08-21T01:22:02;1.00;;;0.30;;
4246;SDS011;2137;52.564;10.062;2022-08-21T01:22:20;0.70;;;0.50;;
4246;SDS011;2137;52.564;10.062;2022-08-21T01:22:36;1.02;;;0.50;;
4246;SDS011;2137;52.564;10.062;2022-08-21T01:24:47;1.30;;;0.40;;
4246;SDS011;2137;52.564;10.062;2022-08-21T01:35:30;2.33;;;0.40;;
4246;SDS011;2137;52.564;10.062;2022-08-21T01:51:20;1.25;;;0.45;;
4246;SDS011;2137;52.564;10.062;2022-08-21T01:51:38;1.25;;;0.50;;
4246;SDS011;2137;52.564;10.062;2022-08-21T01:51:54;2.00;;;0.50;;
4246;SDS011;2137;52.564;10.062;2022-08-21T01:52:13;2.13;;;0.50;;
4246;SDS011;2137;52.564;10.062;2022-08-21T01:52:30;2.58;;;0.50;;
4246;SDS011;2137;52.564;10.062;2022-08-21T01:52:47;2.33;;;0.50;;
4246;SDS011;2137;52.564;10.062;2022-08-21T01:57:19;0.80;;;0.65;;
4246;SDS011;2137;52.564;10.062;2022-08-21T01:57:36;4.12;;;0.62;;
4246;SDS011;2137;52.564;10.062;2022-08-21T01:57:53;5.93;;;0.98;;
4246;SDS011;2137;52.564;10.062;2022-08-21T01:58:09;2.80;;;0.88;;
4246;SDS011;2137;52.564;10.062;2022-08-21T01:58:26;1.75;;;0.85;;
4246;SDS011;2137;52.564;10.062;2022-08-21T01:58:44;1.48;;;0.98;;
4246;SDS011;2137;52.564;10.062;2022-08-21T01:59:02;1.35;;;0.70;;
4246;SDS011;2137;52.564;10.062;2022-08-21T01:59:19;1.10;;;0.52;;
4246;SDS011;2137;52.564;10.062;2022-08-21T02:00:27;2.20;;;0.70;;
4246;SDS011;2137;52.564;10.062;2022-08-21T02:00:43;1.17;;;0.68;;
4246;SDS011;2137;52.564;10.062;2022-08-21T02:01:51;2.30;;;0.68;;
4246;SDS011;2137;52.564;10.062;2022-08-21T02:04:34;0.50;;;0.32;;
4246;SDS011;2137;52.564;10.062;2022-08-21T02:04:52;0.60;;;0.40;;
4246;SDS011;2137;52.564;10.062;2022-08-21T02:22:03;1.23;;;0.80;;
4246;SDS011;2137;52.564;10.062;2022-08-21T02:25:09;1.50;;;0.50;;
4246;SDS011;2137;52.564;10.062;2022-08-21T02:29:46;0.35;;;0.30;;
4246;SDS011;2137;52.564;10.062;2022-08-21T02:34:35;0.50;;;0.43;;
4246;SDS011;2137;52.564;10.062;2022-08-21T03:18:49;1.45;;;0.50;;
4246;SDS011;2137;52.564;10.062;2022-08-21T03:23:36;0.80;;;0.40;;
4246;SDS011;2137;52.564;10.062;2022-08-21T04:01:55;1.10;;;0.50;;
4246;SDS011;2137;52.564;10.062;2022-08-21T04:31:17;1.02;;;0.60;;
4246;SDS011;2137;52.564;10.062;2022-08-21T04:52:04;0.80;;;0.60;;
4246;SDS011;2137;52.564;10.062;2022-08-21T05:34:17;1.38;;;1.20;;
4246;SDS011;2137;52.564;10.062;2022-08-21T05:39:00;2.40;;;0.70;;
4246;SDS011;2137;52.564;10.062;2022-08-21T05:47:42;1.10;;;0.70;;
4246;SDS011;2137;52.564;10.062;2022-08-21T05:57:32;1.67;;;0.75;;
4246;SDS011;2137;52.564;10.062;2022-08-21T06:02:24;0.95;;;0.80;;
4246;SDS011;2137;52.564;10.062;2022-08-21T06:02:49;1.83;;;0.73;;
4246;SDS011;2137;52.564;10.062;2022-08-21T06:21:13;1.38;;;0.73;;
4246;SDS011;2137;52.564;10.062;2022-08-21T06:23:59;1.20;;;0.82;;
4246;SDS011;2137;52.564;10.062;2022-08-21T06:25:58;2.42;;;0.52;;
4246;SDS011;2137;52.564;10.062;2022-08-21T06:36:53;1.80;;;0.70;;
4246;SDS011;2137;52.564;10.062;2022-08-21T06:42:13;2.05;;;0.90;;
4246;SDS011;2137;52.564;10.062;2022-08-21T06:42:30;2.95;;;1.20;;
4246;SDS011;2137;52.564;10.062;2022-08-21T06:46:55;1.70;;;1.05;;
4246;SDS011;2137;52.564;10.062;2022-08-21T06:55:49;1.00;;;0.82;;
4246;SDS011;2137;52.564;10.062;2022-08-21T06:56:33;1.27;;;0.98;;
4246;SDS011;2137;52.564;10.062;2022-08-21T06:58:04;2.30;;;1.00;;
4246;SDS011;2137;52.564;10.062;2022-08-21T07:01:29;1.35;;;0.73;;
4246;SDS011;2137;52.564;10.062;2022-08-21T07:02:37;1.86;;;1.00;;
4246;SDS011;2137;52.564;10.062;2022-08-21T07:12:30;0.93;;;0.70;;
4246;SDS011;2137;52.564;10.062;2022-08-21T07:12:47;1.30;;;0.70;;
4246;SDS011;2137;52.564;10.062;2022-08-21T07:13:06;2.38;;;0.77;;
4246;SDS011;2137;52.564;10.062;2022-08-21T07:13:23;1.67;;;0.60;;
4246;SDS011;2137;52.564;10.062;2022-08-21T07:13:40;1.20;;;0.80;;
4246;SDS011;2137;52.564;10.062;2022-08-21T07:13:57;1.80;;;0.98;;
4246;SDS011;2137;52.564;10.062;2022-08-21T07:14:14;1.63;;;0.98;;
4246;SDS011;2137;52.564;10.062;2022-08-21T07:14:35;1.63;;;0.95;;
4246;SDS011;2137;52.564;10.062;2022-08-21T07:14:52;1.40;;;0.80;;
4246;SDS011;2137;52.564;10.062;2022-08-21T07:15:09;1.23;;;0.75;;
4246;SDS011;2137;52.564;10.062;2022-08-21T07:15:27;0.98;;;0.68;;
4246;SDS011;2137;52.564;10.062;2022-08-21T07:15:45;1.10;;;0.70;;
4246;SDS011;2137;52.564;10.062;2022-08-21T07:16:02;1.45;;;0.70;;
4246;SDS011;2137;52.564;10.062;2022-08-21T07:16:19;1.25;;;0.73;;
4246;SDS011;2137;52.564;10.062;2022-08-21T07:16:36;2.10;;;0.80;;
4246;SDS011;2137;52.564;10.062;2022-08-21T07:16:54;1.92;;;0.85;;
4246;SDS011;2137;52.564;10.062;2022-08-21T07:17:10;1.30;;;0.80;;
4246;SDS011;2137;52.564;10.062;2022-08-21T07:17:27;1.63;;;0.85;;
4246;SDS011;2137;52.564;10.062;2022-08-21T07:17:43;1.45;;;0.80;;
4246;SDS011;2137;52.564;10.062;2022-08-21T07:18:00;1.60;;;0.82;;
4246;SDS011;2137;52.564;10.062;2022-08-21T07:18:18;2.08;;;1.00;;
4246;SDS011;2137;52.564;10.062;2022-08-21T07:18:34;1.73;;;0.90;;
4246;SDS011;2137;52.564;10.062;2022-08-21T07:18:51;1.88;;;0.75;;
4246;SDS011;2137;52.564;10.062;2022-08-21T07:19:08;1.52;;;0.88;;
4246;SDS011;2137;52.564;10.062;2022-08-21T07:19:24;4.50;;;1.00;;
4246;SDS011;2137;52.564;10.062;2022-08-21T07:19:42;2.90;;;1.02;;
4246;SDS011;2137;52.564;10.062;2022-08-21T07:19:58;1.85;;;0.98;;
4246;SDS011;2137;52.564;10.062;2022-08-21T07:20:15;2.22;;;1.02;;
4246;SDS011;2137;52.564;10.062;2022-08-21T07:20:32;2.13;;;0.82;;
4246;SDS011;2137;52.564;10.062;2022-08-21T07:20:48;2.17;;;0.77;;
4246;SDS011;2137;52.564;10.062;2022-08-21T07:21:07;3.20;;;0.95;;
4246;SDS011;2137;52.564;10.062;2022-08-21T07:21:23;2.40;;;0.98;;
4246;SDS011;2137;52.564;10.062;2022-08-21T07:21:41;1.92;;;0.75;;
4246;SDS011;2137;52.564;10.062;2022-08-21T07:21:59;2.80;;;0.75;;
4246;SDS011;2137;52.564;10.062;2022-08-21T07:22:16;2.50;;;0.80;;
4246;SDS011;2137;52.564;10.062;2022-08-21T07:22:35;2.28;;;0.63;;
4246;SDS011;2137;52.564;10.062;2022-08-21T07:22:53;2.60;;;1.00;;
4246;SDS011;2137;52.564;10.062;2022-08-21T07:23:10;2.10;;;1.00;;
4246;SDS011;2137;52.564;10.062;2022-08-21T07:23:28;1.45;;;0.90;;
4246;SDS011;2137;52.564;10.062;2022-08-21T07:23:46;1.60;;;0.90;;
4246;SDS011;2137;52.564;10.062;2022-08-21T07:24:04;2.00;;;1.00;;
4246;SDS011;2137;52.564;10.062;2022-08-21T07:24:21;2.70;;;0.90;;
4246;SDS011;2137;52.564;10.062;2022-08-21T07:24:38;3.92;;;0.70;;
4246;SDS011;2137;52.564;10.062;2022-08-21T07:24:54;0.88;;;0.60;;
4246;SDS011;2137;52.564;10.062;2022-08-21T07:25:11;1.13;;;0.85;;
4246;SDS011;2137;52.564;10.062;2022-08-21T07:25:29;1.42;;;1.00;;
4246;SDS011;2137;52.564;10.062;2022-08-21T07:25:45;1.92;;;0.77;;
4246;SDS011;2137;52.564;10.062;2022-08-21T07:26:02;1.80;;;0.70;;
4246;SDS011;2137;52.564;10.062;2022-08-21T07:26:20;1.45;;;0.70;;
4246;SDS011;2137;52.564;10.062;2022-08-21T07:26:38;1.67;;;0.70;;
4246;SDS011;2137;52.564;10.062;2022-08-21T07:26:55;2.35;;;0.90;;
4246;SDS011;2137;52.564;10.062;2022-08-21T07:27:12;1.83;;;0.65;;
4246;SDS011;2137;52.564;10.062;2022-08-21T07:27:30;1.63;;;0.68;;
4246;SDS011;2137;52.564;10.062;2022-08-21T07:27:47;1.17;;;0.85;;
4246;SDS011;2137;52.564;10.062;2022-08-21T07:28:05;1.10;;;0.90;;
4246;SDS011;2137;52.564;10.062;2022-08-21T07:28:21;1.63;;;0.85;;
4246;SDS011;2137;52.564;10.062;2022-08-21T07:28:38;2.00;;;0.85;;
4246;SDS011;2137;52.564;10.062;2022-08-21T07:28:55;1.67;;;0.98;;
4246;SDS011;2137;52.564;10.062;2022-08-21T07:29:11;1.25;;;0.80;;
4246;SDS011;2137;52.564;10.062;2022-08-21T07:29:29;4.53;;;1.10;;
4246;SDS011;2137;52.564;10.062;2022-08-21T07:29:46;5.13;;;1.30;;
4246;SDS011;2137;52.564;10.062;2022-08-21T07:30:02;3.28;;;1.27;;
4246;SDS011;2137;52.564;10.062;2022-08-21T07:30:19;2.92;;;1.23;;
4246;SDS011;2137;52.564;10.062;2022-08-21T07:30:36;2.03;;;1.05;;
4246;SDS011;2137;52.564;10.062;2022-08-21T07:30:53;1.17;;;0.80;;
4246;SDS011;2137;52.564;10.062;2022-08-21T07:31:13;1.63;;;1.00;;
4246;SDS011;2137;52.564;10.062;2022-08-21T07:31:30;1.63;;;0.90;;
4246;SDS011;2137;52.564;10.062;2022-08-21T07:31:47;2.03;;;1.23;;
4246;SDS011;2137;52.564;10.062;2022-08-21T07:32:03;2.22;;;1.48;;
4246;SDS011;2137;52.564;10.062;2022-08-21T07:32:20;2.28;;;1.17;;
4246;SDS011;2137;52.564;10.062;2022-08-21T07:32:38;2.17;;;1.15;;
4246;SDS011;2137;52.564;10.062;2022-08-21T07:32:54;3.15;;;1.30;;
4246;SDS011;2137;52.564;10.062;2022-08-21T07:33:11;3.05;;;1.20;;
4246;SDS011;2137;52.564;10.062;2022-08-21T07:33:28;1.80;;;1.10;;
4246;SDS011;2137;52.564;10.062;2022-08-21T07:33:45;1.66;;;1.20;;
4246;SDS011;2137;52.564;10.062;2022-08-21T07:34:03;2.10;;;1.25;;
4246;SDS011;2137;52.564;10.062;2022-08-21T07:34:19;3.00;;;1.00;;
4246;SDS011;2137;52.564;10.062;2022-08-21T07:34:36;3.42;;;0.90;;
4246;SDS011;2137;52.564;10.062;2022-08-21T07:34:53;3.10;;;0.80;;
4246;SDS011;2137;52.564;10.062;2022-08-21T07:35:09;1.98;;;0.80;;
4246;SDS011;2137;52.564;10.062;2022-08-21T07:35:27;1.10;;;0.82;;
4246;SDS011;2137;52.564;10.062;2022-08-21T07:35:44;0.90;;;0.82;;
4246;SDS011;2137;52.564;10.062;2022-08-21T07:36:01;1.33;;;0.93;;
4246;SDS011;2137;52.564;10.062;2022-08-21T07:36:18;1.13;;;0.95;;
4246;SDS011;2137;52.564;10.062;2022-08-21T07:36:34;1.23;;;0.70;;
4246;SDS011;2137;52.564;10.062;2022-08-21T07:36:51;1.58;;;0.70;;
4246;SDS011;2137;52.564;10.062;2022-08-21T07:37:09;1.80;;;0.90;;
4246;SDS011;2137;52.564;10.062;2022-08-21T07:37:26;1.48;;;0.70;;
4246;SDS011;2137;52.564;10.062;2022-08-21T07:37:42;1.73;;;0.63;;
4246;SDS011;2137;52.564;10.062;2022-08-21T07:37:59;2.38;;;1.02;;
4246;SDS011;2137;52.564;10.062;2022-08-21T07:38:15;2.08;;;1.08;;
4246;SDS011;2137;52.564;10.062;2022-08-21T07:38:32;1.25;;;1.00;;
4246;SDS011;2137;52.564;10.062;2022-08-21T07:38:50;3.20;;;1.20;;
4246;SDS011;2137;52.564;10.062;2022-08-21T07:39:08;3.95;;;1.30;;
4246;SDS011;2137;52.564;10.062;2022-08-21T07:39:24;3.28;;;1.15;;
4246;SDS011;2137;52.564;10.062;2022-08-21T07:39:41;2.88;;;0.98;;
4246;SDS011;2137;52.564;10.062;2022-08-21T07:39:58;2.53;;;1.20;;
4246;SDS011;2137;52.564;10.062;2022-08-21T07:40:15;3.15;;;1.40;;
4246;SDS011;2137;52.564;10.062;2022-08-21T07:40:33;2.60;;;1.10;;
4246;SDS011;2137;52.564;10.062;2022-08-21T07:40:49;1.88;;;0.93;;
4246;SDS011;2137;52.564;10.062;2022-08-21T07:41:10;2.22;;;1.10;;
4246;SDS011;2137;52.564;10.062;2022-08-21T07:41:29;2.42;;;1.08;;
4246;SDS011;2137;52.564;10.062;2022-08-21T07:41:48;2.55;;;1.30;;
4246;SDS011;2137;52.564;10.062;2022-08-21T07:42:04;6.13;;;1.10;;
4246;SDS011;2137;52.564;10.062;2022-08-21T07:42:23;2.75;;;0.90;;
4246;SDS011;2137;52.564;10.062;2022-08-21T07:42:42;1.55;;;1.00;;
4246;SDS011;2137;52.564;10.062;2022-08-21T07:43:00;1.80;;;1.02;;
4246;SDS011;2137;52.564;10.062;2022-08-21T07:43:16;2.63;;;1.23;;
4246;SDS011;2137;52.564;10.062;2022-08-21T07:43:34;1.83;;;1.00;;
4246;SDS011;2137;52.564;10.062;2022-08-21T07:44:01;2.15;;;1.02;;
4246;SDS011;2137;52.564;10.062;2022-08-21T07:44:21;2.08;;;0.80;;
4246;SDS011;2137;52.564;10.062;2022-08-21T07:44:38;3.05;;;1.00;;
4246;SDS011;2137;52.564;10.062;2022-08-21T07:44:55;3.22;;;1.17;;
4246;SDS011;2137;52.564;10.062;2022-08-21T07:45:12;1.77;;;0.98;;
4246;SDS011;2137;52.564;10.062;2022-08-21T07:45:29;2.42;;;0.95;;
4246;SDS011;2137;52.564;10.062;2022-08-21T07:45:46;5.45;;;1.02;;
4246;SDS011;2137;52.564;10.062;2022-08-21T07:46:04;4.70;;;1.00;;
4246;SDS011;2137;52.564;10.062;2022-08-21T07:46:22;1.40;;;0.90;;
4246;SDS011;2137;52.564;10.062;2022-08-21T07:46:39;1.08;;;0.80;;
4246;SDS011;2137;52.564;10.062;2022-08-21T07:46:55;2.40;;;1.20;;
4246;SDS011;2137;52.564;10.062;2022-08-21T07:47:13;1.90;;;1.08;;
4246;SDS011;2137;52.564;10.062;2022-08-21T07:47:30;3.80;;;0.80;;
4246;SDS011;2137;52.564;10.062;2022-08-21T07:47:58;1.33;;;0.90;;
4246;SDS011;2137;52.564;10.062;2022-08-21T07:48:14;1.95;;;0.90;;
4246;SDS011;2137;52.564;10.062;2022-08-21T07:48:32;3.10;;;1.38;;
4246;SDS011;2137;52.564;10.062;2022-08-21T07:48:49;2.05;;;1.15;;
4246;SDS011;2137;52.564;10.062;2022-08-21T07:49:09;1.67;;;1.15;;
4246;SDS011;2137;52.564;10.062;2022-08-21T07:49:25;2.00;;;1.27;;
4246;SDS011;2137;52.564;10.062;2022-08-21T07:49:42;1.00;;;0.70;;
4246;SDS011;2137;52.564;10.062;2022-08-21T07:49:59;1.52;;;0.73;;
4246;SDS011;2137;52.564;10.062;2022-08-21T07:50:16;3.05;;;1.10;;
4246;SDS011;2137;52.564;10.062;2022-08-21T07:50:33;2.17;;;0.85;;
4246;SDS011;2137;52.564;10.062;2022-08-21T07:50:49;2.40;;;0.80;;
4246;SDS011;2137;52.564;10.062;2022-08-21T07:51:08;1.95;;;0.75;;
4246;SDS011;2137;52.564;10.062;2022-08-21T07:51:26;1.95;;;0.80;;
4246;SDS011;2137;52.564;10.062;2022-08-21T07:51:43;1.80;;;0.85;;
4246;SDS011;2137;52.564;10.062;2022-08-21T07:52:00;1.38;;;0.88;;
4246;SDS011;2137;52.564;10.062;2022-08-21T07:52:17;1.90;;;1.00;;
4246;SDS011;2137;52.564;10.062;2022-08-21T07:52:36;1.25;;;0.68;;
4246;SDS011;2137;52.564;10.062;2022-08-21T07:52:53;1.65;;;0.70;;
4246;SDS011;2137;52.564;10.062;2022-08-21T07:53:10;2.67;;;1.00;;
4246;SDS011;2137;52.564;10.062;2022-08-21T07:53:26;2.70;;;1.30;;
4246;SDS011;2137;52.564;10.062;2022-08-21T07:53:47;2.00;;;1.20;;
4246;SDS011;2137;52.564;10.062;2022-08-21T07:54:05;3.00;;;1.23;;
4246;SDS011;2137;52.564;10.062;2022-08-21T07:54:22;2.30;;;1.05;;
4246;SDS011;2137;52.564;10.062;2022-08-21T07:54:49;1.80;;;1.05;;
4246;SDS011;2137;52.564;10.062;2022-08-21T07:55:09;2.60;;;1.00;;
4246;SDS011;2137;52.564;10.062;2022-08-21T07:55:27;1.98;;;0.85;;
4246;SDS011;2137;52.564;10.062;2022-08-21T07:55:44;1.90;;;1.00;;
4246;SDS011;2137;52.564;10.062;2022-08-21T07:56:01;3.33;;;1.00;;
4246;SDS011;2137;52.564;10.062;2022-08-21T07:56:18;2.97;;;0.80;;
4246;SDS011;2137;52.564;10.062;2022-08-21T07:56:36;1.98;;;1.00;;
4246;SDS011;2137;52.564;10.062;2022-08-21T07:56:53;1.48;;;0.90;;
4246;SDS011;2137;52.564;10.062;2022-08-21T07:57:09;2.90;;;1.10;;
4246;SDS011;2137;52.564;10.062;2022-08-21T07:57:26;3.33;;;1.08;;
4246;SDS011;2137;52.564;10.062;2022-08-21T07:57:45;1.80;;;0.90;;
4246;SDS011;2137;52.564;10.062;2022-08-21T07:58:02;1.67;;;0.80;;
4246;SDS011;2137;52.564;10.062;2022-08-21T07:58:19;2.20;;;0.90;;
4246;SDS011;2137;52.564;10.062;2022-08-21T07:58:36;2.00;;;0.90;;
4246;SDS011;2137;52.564;10.062;2022-08-21T07:58:53;1.40;;;0.80;;
4246;SDS011;2137;52.564;10.062;2022-08-21T07:59:10;2.03;;;0.70;;
4246;SDS011;2137;52.564;10.062;2022-08-21T07:59:27;2.58;;;0.88;;
4246;SDS011;2137;52.564;10.062;2022-08-21T07:59:44;2.22;;;1.10;;
4246;SDS011;2137;52.564;10.062;2022-08-21T08:00:01;5.70;;;1.35;;